Details From DABC - Mohamed Boudiaf Intl
To DABS - Cheikh Larbi Tebessi
Flight Number -
Tags Generated
Created
Modified
Stats Distance 89 nm / 164 km
Max Altitude 0 ft / 0 m
Waypoints 2
Social Downloads 3
Likes 0
Share VATSIM

Download

Looking for another format? Having issues loading an existing format? Contact us
Advertisement - Login to hide

Notes

Generated

Route

DABC DABS

ID Type Via Altitude Latitude Longitude Leg Dist Tot Dist Heading (true) Name
O DABC APT - 0 ft / 0 m 36.28444˚ 6.61472˚ - 0 nm - -
O DABS APT - 0 ft / 0 m 35.43568˚ 8.10811˚ 88 nm 88 nm 125° / 125° -

Altitude Profile

Advertisement - Login to hide

DABC

Details ICAO DABC (CZL)
Name MOHAMED BOUDIAF INTL
Region Algeria
Timezone Africa/Algiers (UTC+1.0)
Stats Elevation 2,265 ft / 690 m (AMSL)
Location 36.276042° 6.620278°
Runways 2
Magnetic Variation 1.775° E

METAR

DABC 271530Z 26008KT 9999 FEW030TCU SCT033 31/11 Q1015

Decode

TAF

TAF DABC 271100Z 2712/2812 24015KT 9999 SCT030 TEMPO 2712/2719 24015G30KT FEW026TCU PROB30 TEMPO 2714/2718 5000 -TSRA FEW023CB BECMG 2718/2720 02010KT TEMPO 2800/2808 3000 BR BKN008 BECMG 2808/2810 34012KT

Decode

Departure Runways

ID Width Length Bearing (true) Bearing (mag) Surface Threshold Offset Overrun Length
14 148 ft / 45 m 7,886 ft / 2,404 m 136.03° 134.26° Asphalt 0 ft / 0 m 340 ft / 104 m
16 148 ft / 45 m 9,871 ft / 3,009 m 159.14° 157.37° Asphalt 0 ft / 0 m 400 ft / 122 m
32 148 ft / 45 m 7,886 ft / 2,404 m 316.04° 314.27° Asphalt 0 ft / 0 m 200 ft / 61 m
34 148 ft / 45 m 9,871 ft / 3,009 m 339.15° 337.38° Asphalt 0 ft / 0 m 400 ft / 122 m

DABS

Details ICAO DABS (TEE)
Name CHEIKH LARBI TEBESSI
Region Algeria
Timezone Africa/Algiers (UTC+1.0)
Stats Elevation 2,661 ft / 811 m (AMSL)
Location 35.431610° 8.120716°
Runways 2
Magnetic Variation 2.010° E

METAR

DABS 271500Z 30008KT 9999 FEW040 34/06 Q1017

Decode

TAF

TAF DABS 271100Z 2712/2812 20015KT 9999 SCT033 TEMPO 2714/2720 24015G30KT FEW023CB TEMPO 2800/2812 16015G30KT

Decode

Destination Runways

ID Width Length Bearing (true) Bearing (mag) Surface Threshold Offset Overrun Length
11 148 ft / 45 m 9,850 ft / 3,002 m 112.75° 110.74° Asphalt 0 ft / 0 m 345 ft / 105 m
12 98 ft / 30 m 7,867 ft / 2,398 m 121.86° 119.85° Asphalt 0 ft / 0 m 0 ft / 0 m
29 148 ft / 45 m 9,850 ft / 3,002 m 292.76° 290.75° Asphalt 0 ft / 0 m 345 ft / 105 m
30 98 ft / 30 m 7,867 ft / 2,398 m 301.88° 299.87° Asphalt 0 ft / 0 m 0 ft / 0 m

Popular Alternatives